createdAt,value
2017-11-06T00:01:25.582Z,12.07
2017-11-06T00:03:59.158Z,15.00
2017-11-06T00:06:32.685Z,7.00
2017-11-06T00:09:06.182Z,11.93
2017-11-06T00:11:39.777Z,14.53
2017-11-06T00:14:13.363Z,6.03
2017-11-06T00:16:46.949Z,5.37
2017-11-06T00:19:20.583Z,4.57
2017-11-06T00:21:54.295Z,4.60
2017-11-06T00:24:28.363Z,5.10
2017-11-06T00:27:02.098Z,5.87
2017-11-06T00:29:35.724Z,5.30
2017-11-06T00:32:09.410Z,5.20
2017-11-06T00:34:43.102Z,5.77
2017-11-06T00:37:16.726Z,6.60
2017-11-06T00:39:51.851Z,5.50
2017-11-06T00:42:25.490Z,4.43
2017-11-06T00:44:59.034Z,4.70
2017-11-06T00:47:32.635Z,5.00
2017-11-06T00:50:06.359Z,8.37
2017-11-06T00:52:41.471Z,5.10
2017-11-06T00:55:15.086Z,6.47
2017-11-06T00:57:49.401Z,5.90
2017-11-06T01:00:23.107Z,12.33
2017-11-06T01:02:56.713Z,10.10
2017-11-06T01:05:30.693Z,8.70
2017-11-06T01:08:05.042Z,5.50
2017-11-06T01:10:38.638Z,5.40
2017-11-06T01:13:12.134Z,5.20
2017-11-06T01:15:45.858Z,5.80
2017-11-06T01:18:20.339Z,5.23
2017-11-06T01:20:54.302Z,5.50
2017-11-06T01:23:27.875Z,5.30
2017-11-06T01:26:01.482Z,5.13
2017-11-06T01:28:35.036Z,4.83
2017-11-06T01:31:08.542Z,6.10
2017-11-06T01:33:42.170Z,4.57
2017-11-06T01:36:15.773Z,4.90
2017-11-06T01:38:49.380Z,5.80
2017-11-06T01:41:23.909Z,5.30
2017-11-06T01:43:57.502Z,4.67
2017-11-06T01:46:30.993Z,5.03
2017-11-06T01:49:04.698Z,5.50
2017-11-06T01:51:38.397Z,5.40
2017-11-06T01:54:12.109Z,5.23
2017-11-06T01:56:45.814Z,4.60
2017-11-06T01:59:19.273Z,4.50
2017-11-06T02:01:53.010Z,4.80
2017-11-06T02:04:26.613Z,4.77
2017-11-06T02:07:00.530Z,4.97
2017-11-06T02:09:34.311Z,5.17
2017-11-06T02:12:07.925Z,4.27
2017-11-06T02:14:41.490Z,4.60
2017-11-06T02:17:14.974Z,5.13
2017-11-06T02:19:49.418Z,5.07
2017-11-06T02:22:24.055Z,4.70
2017-11-06T02:24:57.731Z,4.80
2017-11-06T02:27:31.271Z,4.83
2017-11-06T02:30:04.987Z,4.80
2017-11-06T02:32:38.526Z,5.03
2017-11-06T02:35:12.892Z,4.30
2017-11-06T02:37:46.390Z,4.87
2017-11-06T02:40:19.989Z,5.03
2017-11-06T02:42:54.470Z,4.40
2017-11-06T02:45:28.114Z,4.50
2017-11-06T02:48:01.714Z,4.33
2017-11-06T02:50:35.322Z,4.70
2017-11-06T02:53:09.013Z,4.20
2017-11-06T02:55:42.620Z,5.00
2017-11-06T02:58:16.218Z,4.67
2017-11-06T03:00:50.027Z,4.43
2017-11-06T03:03:23.625Z,4.37
2017-11-06T03:05:57.330Z,4.50
2017-11-06T03:08:31.654Z,4.67
2017-11-06T03:11:05.966Z,4.10
2017-11-06T03:13:39.566Z,4.37
2017-11-06T03:16:13.025Z,4.10
2017-11-06T03:18:46.561Z,4.20
2017-11-06T03:21:20.061Z,3.90
2017-11-06T03:23:53.667Z,3.80
2017-11-06T03:26:27.574Z,3.37
2017-11-06T03:29:01.234Z,3.47
2017-11-06T03:31:35.083Z,3.33
2017-11-06T03:34:08.686Z,3.60
2017-11-06T03:36:42.258Z,3.70
2017-11-06T03:39:15.882Z,4.07
2017-11-06T03:41:49.434Z,4.63
2017-11-06T03:44:23.088Z,3.60
2017-11-06T03:46:57.195Z,3.70
2017-11-06T03:49:31.699Z,3.90
2017-11-06T03:52:06.138Z,4.60
2017-11-06T03:54:39.738Z,3.63
2017-11-06T03:57:13.270Z,4.07
2017-11-06T03:59:47.051Z,2.70
2017-11-06T04:02:20.726Z,3.33
2017-11-06T04:04:55.265Z,3.73
2017-11-06T04:07:29.074Z,3.23
2017-11-06T04:10:02.679Z,3.90
2017-11-06T04:12:36.118Z,3.33
2017-11-06T04:15:09.979Z,4.13
2017-11-06T04:17:43.529Z,3.63
2017-11-06T04:20:17.122Z,3.80
2017-11-06T04:22:50.691Z,4.30
2017-11-06T04:25:24.295Z,4.27
2017-11-06T04:27:58.098Z,4.23
2017-11-06T04:30:32.609Z,3.80
2017-11-06T04:33:06.214Z,4.03
2017-11-06T04:35:39.923Z,3.87
2017-11-06T04:38:13.451Z,4.40
2017-11-06T04:40:47.153Z,4.13
2017-11-06T04:43:21.018Z,4.67
2017-11-06T04:45:54.732Z,3.83
2017-11-06T04:48:28.426Z,4.10
2017-11-06T04:51:02.950Z,4.07
2017-11-06T04:53:36.558Z,3.87
2017-11-06T04:56:11.187Z,4.23
2017-11-06T04:58:44.878Z,4.10
2017-11-06T05:01:18.583Z,3.60
2017-11-06T05:03:52.295Z,3.97
2017-11-06T05:06:25.787Z,3.90
2017-11-06T05:08:59.897Z,4.23
2017-11-06T05:11:34.630Z,4.07
2017-11-06T05:14:09.266Z,4.03
2017-11-06T05:16:42.746Z,3.90
2017-11-06T05:19:16.214Z,3.70
2017-11-06T05:21:49.846Z,4.60
2017-11-06T05:24:23.655Z,3.50
2017-11-06T05:26:57.766Z,4.40
2017-11-06T05:29:32.083Z,3.60
2017-11-06T05:32:06.298Z,3.43
2017-11-06T05:34:39.735Z,3.70
2017-11-06T05:37:14.222Z,3.40
2017-11-06T05:39:48.642Z,3.80
2017-11-06T05:42:22.202Z,3.87
2017-11-06T05:44:55.826Z,3.60
2017-11-06T05:47:29.335Z,3.17
2017-11-06T05:50:03.826Z,3.43
2017-11-06T05:52:37.354Z,3.47
2017-11-06T05:55:10.910Z,4.00
2017-11-06T05:57:45.338Z,4.67
2017-11-06T06:00:18.982Z,4.10
2017-11-06T06:02:52.731Z,3.57
2017-11-06T06:05:26.970Z,4.47
2017-11-06T06:08:00.702Z,3.90
2017-11-06T06:10:34.610Z,4.03
2017-11-06T06:13:08.214Z,3.93
2017-11-06T06:15:41.886Z,3.50
2017-11-06T06:18:15.474Z,4.10
2017-11-06T06:20:49.170Z,3.37
2017-11-06T06:23:23.535Z,3.40
2017-11-06T06:25:56.978Z,3.63
2017-11-06T06:28:30.434Z,3.80
2017-11-06T06:31:04.726Z,3.73
2017-11-06T06:33:39.130Z,3.40
2017-11-06T06:36:12.642Z,3.27
2017-11-06T06:38:46.882Z,3.30
2017-11-06T06:41:20.445Z,3.60
2017-11-06T06:43:53.992Z,3.70
2017-11-06T06:46:28.475Z,3.73
2017-11-06T06:49:02.205Z,4.77
2017-11-06T06:51:35.807Z,3.60
2017-11-06T06:54:10.122Z,4.27
2017-11-06T06:56:43.726Z,3.20
2017-11-06T06:59:17.161Z,4.30
2017-11-06T07:01:50.830Z,3.50
2017-11-06T07:04:25.150Z,3.60
2017-11-06T07:06:58.706Z,3.50
2017-11-06T07:09:32.240Z,3.23
2017-11-06T07:12:05.842Z,3.40
2017-11-06T07:14:39.546Z,3.57
2017-11-06T07:17:13.141Z,3.77
2017-11-06T07:19:46.713Z,3.47
2017-11-06T07:22:20.450Z,3.73
2017-11-06T07:24:54.157Z,4.40
2017-11-06T07:27:27.862Z,3.60
2017-11-06T07:30:01.423Z,3.93
2017-11-06T07:32:35.021Z,3.60
2017-11-06T07:35:08.498Z,3.50
2017-11-06T07:37:43.041Z,4.10
2017-11-06T07:40:16.663Z,4.07
2017-11-06T07:42:51.075Z,3.93
2017-11-06T07:45:24.794Z,3.20
2017-11-06T07:47:58.405Z,3.90
2017-11-06T07:50:32.002Z,4.30
2017-11-06T07:53:05.602Z,4.70
2017-11-06T07:55:39.189Z,4.00
2017-11-06T07:58:12.787Z,5.10
2017-11-06T08:00:46.394Z,4.50
2017-11-06T08:03:19.971Z,4.63
2017-11-06T08:05:53.606Z,4.13
2017-11-06T08:08:27.205Z,4.10
2017-11-06T08:11:00.811Z,4.93
2017-11-06T08:13:34.410Z,4.43
2017-11-06T08:16:08.014Z,3.90
2017-11-06T08:18:41.454Z,4.70
2017-11-06T08:21:15.912Z,4.80
2017-11-06T08:23:51.002Z,5.33
2017-11-06T08:26:24.779Z,5.23
2017-11-06T08:28:58.380Z,5.37
2017-11-06T08:31:32.034Z,5.17
2017-11-06T08:34:05.674Z,5.27
2017-11-06T08:36:39.282Z,5.63
2017-11-06T08:39:13.802Z,4.57
2017-11-06T08:41:47.297Z,5.07
2017-11-06T08:44:20.899Z,5.50
2017-11-06T08:46:54.450Z,4.87
2017-11-06T08:49:28.207Z,5.00
2017-11-06T08:52:02.009Z,4.80
2017-11-06T08:54:35.646Z,4.97
2017-11-06T08:57:09.226Z,5.00
2017-11-06T08:59:43.015Z,4.73
2017-11-06T09:02:16.674Z,4.80
2017-11-06T09:04:50.298Z,5.47
2017-11-06T09:07:24.234Z,5.20
2017-11-06T09:09:58.326Z,5.83
2017-11-06T09:12:31.937Z,5.77
2017-11-06T09:15:05.395Z,6.97
2017-11-06T09:17:38.922Z,5.70
2017-11-06T09:20:12.542Z,5.20
2017-11-06T09:22:46.343Z,4.67
2017-11-06T09:25:20.046Z,5.00
2017-11-06T09:27:53.646Z,6.03
2017-11-06T09:30:27.213Z,7.37
2017-11-06T09:33:00.822Z,5.93
2017-11-06T09:35:34.458Z,4.47
2017-11-06T09:38:08.023Z,5.50
2017-11-06T09:40:41.624Z,5.93
2017-11-06T09:43:15.150Z,4.77
2017-11-06T09:45:48.634Z,5.50
2017-11-06T09:48:22.966Z,4.90
2017-11-06T09:50:56.570Z,5.43
2017-11-06T09:53:30.069Z,6.20
2017-11-06T09:56:03.562Z,5.17
2017-11-06T09:58:37.366Z,5.27
2017-11-06T10:01:10.866Z,4.60
2017-11-06T10:03:44.467Z,4.60
2017-11-06T10:06:18.030Z,4.33
2017-11-06T10:08:52.386Z,4.80
2017-11-06T10:11:25.862Z,4.80
2017-11-06T10:13:59.453Z,4.67
2017-11-06T10:16:32.942Z,4.27
2017-11-06T10:19:06.459Z,4.10
2017-11-06T10:21:40.050Z,5.03
2017-11-06T10:24:13.578Z,5.10
2017-11-06T10:26:47.294Z,5.10
2017-11-06T10:29:20.885Z,4.40
2017-11-06T10:31:55.278Z,4.73
2017-11-06T10:34:29.690Z,3.87
2017-11-06T10:37:03.426Z,3.90
2017-11-06T10:39:37.134Z,4.00
2017-11-06T10:42:11.653Z,3.30
2017-11-06T10:44:45.254Z,3.10
2017-11-06T10:47:19.578Z,3.40
2017-11-06T10:49:54.094Z,3.57
2017-11-06T10:52:27.537Z,4.20
2017-11-06T10:55:01.091Z,3.03
2017-11-06T10:57:34.704Z,4.27
2017-11-06T11:00:08.398Z,3.60
2017-11-06T11:02:42.105Z,3.90
2017-11-06T11:05:15.667Z,3.17
2017-11-06T11:07:49.298Z,3.60
2017-11-06T11:10:23.790Z,3.70
2017-11-06T11:12:57.398Z,3.70
2017-11-06T11:15:31.950Z,3.63
2017-11-06T11:18:05.558Z,3.57
2017-11-06T11:20:39.210Z,4.33
2017-11-06T11:23:12.814Z,3.70
2017-11-06T11:25:47.143Z,4.20
2017-11-06T11:28:20.749Z,4.90
2017-11-06T11:30:54.471Z,3.70
2017-11-06T11:33:27.950Z,3.50
2017-11-06T11:36:01.978Z,3.30
2017-11-06T11:38:35.990Z,3.00
2017-11-06T11:41:09.698Z,2.93
2017-11-06T11:43:43.316Z,2.97
2017-11-06T11:46:16.801Z,3.53
2017-11-06T11:48:50.906Z,2.90
2017-11-06T11:51:24.493Z,2.40
2017-11-06T11:53:58.066Z,2.90
2017-11-06T11:56:31.666Z,2.30
2017-11-06T11:59:05.413Z,2.57
2017-11-06T12:01:39.817Z,2.10
2017-11-06T12:04:13.490Z,2.40
2017-11-06T12:06:47.102Z,2.23
2017-11-06T12:09:20.743Z,2.40
2017-11-06T12:11:54.241Z,2.43
2017-11-06T12:14:27.737Z,2.70
2017-11-06T12:17:01.541Z,2.33
2017-11-06T12:19:35.245Z,2.53
2017-11-06T12:22:08.841Z,2.60
2017-11-06T12:24:42.410Z,2.53
2017-11-06T12:27:16.050Z,3.10
2017-11-06T12:29:49.646Z,3.00
2017-11-06T12:32:23.450Z,2.77
2017-11-06T12:34:57.055Z,2.57
2017-11-06T12:37:30.646Z,1.83
2017-11-06T12:40:04.467Z,2.27
2017-11-06T12:42:38.782Z,2.50
2017-11-06T12:45:12.482Z,3.40
2017-11-06T12:47:45.978Z,2.37
2017-11-06T12:50:19.718Z,2.47
2017-11-06T12:52:53.409Z,2.47
2017-11-06T12:55:27.670Z,2.03
2017-11-06T12:58:01.407Z,2.20
2017-11-06T13:00:34.858Z,1.80
2017-11-06T13:03:08.485Z,2.40
2017-11-06T13:05:42.070Z,2.50
2017-11-06T13:08:15.822Z,2.83
2017-11-06T13:10:49.406Z,2.57
2017-11-06T13:13:23.010Z,2.10
2017-11-06T13:15:57.130Z,3.10
2017-11-06T13:18:31.546Z,2.27
2017-11-06T13:21:05.014Z,2.40
2017-11-06T13:23:38.642Z,2.00
2017-11-06T13:26:12.394Z,2.00
2017-11-06T13:28:46.734Z,1.80
2017-11-06T13:31:20.370Z,2.20
2017-11-06T13:33:53.962Z,2.40
2017-11-06T13:36:28.346Z,2.43
2017-11-06T13:39:02.054Z,2.10
2017-11-06T13:41:35.697Z,1.90
2017-11-06T13:44:09.290Z,2.77
2017-11-06T13:46:42.978Z,2.33
2017-11-06T13:49:16.566Z,2.10
2017-11-06T13:51:50.298Z,2.17
2017-11-06T13:54:23.874Z,2.30
2017-11-06T13:56:57.498Z,2.30
2017-11-06T13:59:31.694Z,2.83
2017-11-06T14:02:05.418Z,2.17
2017-11-06T14:04:39.154Z,2.10
2017-11-06T14:07:13.537Z,2.47
2017-11-06T14:09:46.994Z,2.10
2017-11-06T14:12:21.268Z,2.37
2017-11-06T14:14:55.554Z,2.67
2017-11-06T14:17:29.218Z,2.10
2017-11-06T14:20:02.874Z,2.00
2017-11-06T14:22:37.202Z,2.30
2017-11-06T14:25:11.614Z,1.73
2017-11-06T14:27:45.282Z,2.70
2017-11-06T14:30:20.130Z,1.97
2017-11-06T14:32:53.717Z,2.40
2017-11-06T14:35:27.345Z,2.70
2017-11-06T14:38:00.926Z,2.30
2017-11-06T14:40:35.495Z,3.07
2017-11-06T14:43:09.135Z,2.40
2017-11-06T14:45:42.878Z,2.47
2017-11-06T14:48:17.095Z,2.90
2017-11-06T14:50:50.802Z,2.37
2017-11-06T14:53:24.342Z,2.80
2017-11-06T14:55:57.993Z,2.80
2017-11-06T14:58:31.598Z,2.70
2017-11-06T15:01:05.922Z,2.10
2017-11-06T15:03:39.506Z,2.23
2017-11-06T15:06:13.167Z,2.20
2017-11-06T15:08:46.836Z,2.37
2017-11-06T15:11:20.317Z,2.20
2017-11-06T15:13:53.822Z,2.03
2017-11-06T15:16:27.417Z,2.60
2017-11-06T15:19:01.022Z,2.40
2017-11-06T15:21:34.590Z,2.00
2017-11-06T15:24:08.222Z,2.30
2017-11-06T15:26:41.898Z,2.23
2017-11-06T15:29:15.526Z,2.00
2017-11-06T15:31:49.027Z,2.17
2017-11-06T15:34:22.622Z,3.03
2017-11-06T15:36:56.082Z,2.20
2017-11-06T15:39:29.721Z,2.13
2017-11-06T15:42:04.037Z,2.30
2017-11-06T15:44:37.618Z,2.57
2017-11-06T15:47:11.201Z,2.40
2017-11-06T15:49:44.841Z,2.47
2017-11-06T15:52:18.534Z,2.17
2017-11-06T15:54:52.119Z,2.43
2017-11-06T15:57:26.602Z,2.20
2017-11-06T16:00:00.269Z,2.23
2017-11-06T16:02:33.974Z,2.50
2017-11-06T16:05:07.913Z,2.30
2017-11-06T16:07:41.590Z,2.50
2017-11-06T16:10:15.190Z,2.23
2017-11-06T16:12:48.894Z,2.43
2017-11-06T16:15:22.489Z,2.10
2017-11-06T16:17:56.090Z,2.20
2017-11-06T16:20:29.699Z,2.23
2017-11-06T16:23:04.094Z,2.50
2017-11-06T16:25:38.529Z,3.33
2017-11-06T16:28:12.191Z,2.80
2017-11-06T16:30:45.793Z,2.40
2017-11-06T16:33:19.418Z,2.40
2017-11-06T16:35:53.101Z,2.30
2017-11-06T16:38:26.645Z,1.83
2017-11-06T16:41:00.926Z,2.13
2017-11-06T16:43:34.655Z,2.50
2017-11-06T16:46:08.218Z,2.33
2017-11-06T16:48:41.739Z,1.93
2017-11-06T16:51:15.326Z,2.03
2017-11-06T16:53:49.658Z,2.43
2017-11-06T16:56:23.283Z,2.33
2017-11-06T16:58:56.849Z,2.40
2017-11-06T17:01:30.439Z,3.37
2017-11-06T17:04:04.870Z,3.10
2017-11-06T17:06:38.491Z,2.83
2017-11-06T17:09:13.001Z,3.00
2017-11-06T17:11:46.526Z,2.53
2017-11-06T17:14:20.328Z,2.30
2017-11-06T17:16:53.935Z,3.10
2017-11-06T17:19:27.736Z,5.77
2017-11-06T17:22:01.342Z,8.90
2017-11-06T17:24:34.942Z,19.27
2017-11-06T17:27:09.086Z,11.50
2017-11-06T17:29:42.749Z,4.30
2017-11-06T17:32:17.043Z,3.73
2017-11-06T17:34:50.774Z,3.50
2017-11-06T17:37:25.189Z,4.70
2017-11-06T17:39:59.717Z,3.73
2017-11-06T17:42:33.413Z,2.30
2017-11-06T17:45:06.922Z,2.70
2017-11-06T17:47:40.450Z,2.40
2017-11-06T17:50:13.885Z,3.17
2017-11-06T17:52:47.402Z,3.30
2017-11-06T17:55:20.914Z,3.83
2017-11-06T17:57:54.563Z,3.00
2017-11-06T18:00:28.846Z,2.77
2017-11-06T18:03:02.366Z,3.50
2017-11-06T18:05:35.811Z,3.37
2017-11-06T18:08:10.218Z,3.00
2017-11-06T18:10:43.742Z,2.67
2017-11-06T18:13:18.030Z,2.00
2017-11-06T18:15:52.238Z,2.70
2017-11-06T18:18:25.821Z,6.33
2017-11-06T18:20:59.354Z,3.90
2017-11-06T18:23:33.561Z,4.37
2017-11-06T18:26:07.878Z,4.00
2017-11-06T18:28:41.491Z,3.30
2017-11-06T18:31:15.014Z,3.87
2017-11-06T18:33:49.303Z,4.30
2017-11-06T18:36:22.827Z,3.67
2017-11-06T18:38:57.109Z,9.27
2017-11-06T18:41:31.322Z,7.50
2017-11-06T18:44:04.865Z,5.20
2017-11-06T18:46:38.367Z,7.00
2017-11-06T18:49:11.814Z,12.20
2017-11-06T18:51:45.334Z,16.43
2017-11-06T18:54:18.994Z,24.50
2017-11-06T18:56:52.511Z,25.50
2017-11-06T18:59:26.750Z,21.87
2017-11-06T19:02:00.964Z,17.10
2017-11-06T19:04:35.179Z,9.70
2017-11-06T19:07:09.381Z,7.27
2017-11-06T19:09:42.966Z,7.90
2017-11-06T19:12:16.470Z,9.27
2017-11-06T19:14:50.006Z,6.13
2017-11-06T19:17:24.404Z,5.70
2017-11-06T19:19:57.951Z,5.20
2017-11-06T19:22:31.558Z,3.23
2017-11-06T19:25:05.231Z,3.03
2017-11-06T19:27:38.822Z,2.60
2017-11-06T19:30:12.338Z,1.80
2017-11-06T19:32:45.875Z,1.90
2017-11-06T19:35:19.528Z,1.90
2017-11-06T19:37:53.037Z,1.83
2017-11-06T19:40:26.478Z,2.00
2017-11-06T19:42:59.986Z,2.03
2017-11-06T19:45:33.643Z,2.77
2017-11-06T19:48:07.277Z,6.40
2017-11-06T19:50:40.813Z,5.70
2017-11-06T19:53:14.330Z,3.43
2017-11-06T19:55:47.766Z,2.00
2017-11-06T19:58:21.314Z,1.60
2017-11-06T20:00:55.514Z,2.60
2017-11-06T20:03:29.021Z,2.87
2017-11-06T20:06:03.426Z,3.50
2017-11-06T20:08:36.930Z,3.20
2017-11-06T20:11:10.434Z,3.60
2017-11-06T20:13:44.862Z,4.90
2017-11-06T20:16:19.059Z,6.30
2017-11-06T20:18:52.565Z,4.77
2017-11-06T20:21:26.967Z,3.70
2017-11-06T20:24:00.470Z,2.97
2017-11-06T20:26:33.938Z,2.73
2017-11-06T20:29:07.381Z,3.43
2017-11-06T20:31:41.777Z,3.60
2017-11-06T20:34:15.281Z,3.03
2017-11-06T20:36:48.809Z,3.67
2017-11-06T20:39:22.394Z,4.67
2017-11-06T20:41:56.598Z,5.93
2017-11-06T20:44:30.918Z,5.40
2017-11-06T20:47:05.231Z,6.53
2017-11-06T20:49:38.858Z,5.30
2017-11-06T20:52:12.366Z,6.00
2017-11-06T20:54:46.045Z,5.40
2017-11-06T20:57:19.557Z,5.13
2017-11-06T20:59:53.073Z,6.60
2017-11-06T21:02:26.706Z,9.80
2017-11-06T21:05:00.354Z,6.00
2017-11-06T21:07:34.550Z,3.60
2017-11-06T21:10:08.066Z,4.97
2017-11-06T21:12:42.458Z,8.97
2017-11-06T21:15:15.974Z,7.43
2017-11-06T21:17:49.474Z,3.73
2017-11-06T21:20:22.998Z,3.93
2017-11-06T21:22:56.444Z,5.60
2017-11-06T21:25:30.086Z,7.40
2017-11-06T21:28:03.603Z,13.80
2017-11-06T21:30:42.750Z,11.57
2017-11-06T21:33:16.304Z,9.20
2017-11-06T21:35:49.818Z,5.87
2017-11-06T21:38:23.258Z,6.07
2017-11-06T21:40:57.626Z,5.10
2017-11-06T21:43:31.922Z,4.20
2017-11-06T21:46:05.558Z,4.53
2017-11-06T21:48:38.989Z,2.90
2017-11-06T21:51:12.522Z,2.87
2017-11-06T21:53:45.945Z,3.70
2017-11-06T21:56:19.594Z,2.83
2017-11-06T21:58:53.034Z,3.03
2017-11-06T22:01:26.550Z,3.20
2017-11-06T22:04:00.187Z,2.60
2017-11-06T22:06:33.838Z,2.93
2017-11-06T22:09:07.294Z,2.63
2017-11-06T22:11:40.942Z,2.70
2017-11-06T22:14:14.398Z,2.87
2017-11-06T22:16:48.745Z,3.23
2017-11-06T22:19:22.950Z,3.20
2017-11-06T22:21:56.457Z,2.90
2017-11-06T22:24:30.658Z,3.00
2017-11-06T22:27:04.167Z,3.30
2017-11-06T22:29:37.798Z,3.10
2017-11-06T22:32:12.085Z,3.30
2017-11-06T22:34:46.394Z,2.80
2017-11-06T22:37:19.902Z,3.10
2017-11-06T22:39:53.343Z,3.70
2017-11-06T22:42:26.881Z,3.30
2017-11-06T22:45:00.534Z,4.30
2017-11-06T22:47:33.966Z,3.80
2017-11-06T22:50:07.531Z,3.43
2017-11-06T22:52:40.996Z,3.20
2017-11-06T22:55:15.194Z,3.83
2017-11-06T22:57:48.800Z,3.70
2017-11-06T23:00:22.285Z,3.87
2017-11-06T23:02:55.938Z,3.60
2017-11-06T23:05:29.379Z,3.43
2017-11-06T23:08:03.671Z,4.63
2017-11-06T23:10:37.130Z,3.37
2017-11-06T23:13:10.958Z,3.57
2017-11-06T23:15:44.518Z,7.57
2017-11-06T23:18:18.039Z,11.30
2017-11-06T23:20:51.626Z,8.87
2017-11-06T23:23:25.257Z,10.70
2017-11-06T23:25:58.802Z,9.40
2017-11-06T23:28:32.463Z,6.43
2017-11-06T23:31:05.957Z,7.00
2017-11-06T23:33:39.662Z,4.30
2017-11-06T23:36:13.238Z,3.80
2017-11-06T23:38:47.038Z,4.17
2017-11-06T23:41:20.780Z,4.33
2017-11-06T23:43:54.374Z,4.00
2017-11-06T23:46:27.802Z,3.90
2017-11-06T23:49:01.369Z,4.97
2017-11-06T23:51:35.174Z,3.93
2017-11-06T23:54:17.760Z,3.57
2017-11-06T23:56:51.438Z,3.53
2017-11-06T23:59:25.170Z,3.87
